createdAt,value
2022-07-25T00:02:07.301Z,100210.66
2022-07-25T00:07:10.493Z,100205.75
2022-07-25T00:12:12.078Z,100206.00
2022-07-25T00:17:14.174Z,100203.00
2022-07-25T00:22:15.797Z,100195.44
2022-07-25T00:27:17.392Z,100192.94
2022-07-25T00:32:19.044Z,100180.81
2022-07-25T00:37:20.657Z,100184.09
2022-07-25T00:42:24.130Z,100184.44
2022-07-25T00:47:26.114Z,100179.38
2022-07-25T00:52:27.839Z,100189.53
2022-07-25T00:57:29.406Z,100180.06
2022-07-25T01:02:31.059Z,100170.72
2022-07-25T01:07:32.928Z,100163.91
2022-07-25T01:12:52.571Z,100166.72
2022-07-25T01:17:54.373Z,100152.25
2022-07-25T01:22:56.722Z,100157.97
2022-07-25T01:27:58.463Z,100141.03
2022-07-25T01:33:00.468Z,100142.19
2022-07-25T01:38:08.801Z,100138.41
2022-07-25T01:43:11.257Z,100133.91
2022-07-25T01:48:12.878Z,100119.53
2022-07-25T01:53:14.534Z,100123.00
2022-07-25T01:58:16.156Z,100127.72
2022-07-25T02:03:30.112Z,100120.66
2022-07-25T02:08:31.952Z,100119.28
2022-07-25T02:13:34.985Z,100113.56
2022-07-25T02:18:36.656Z,100108.47
2022-07-25T02:23:38.320Z,100103.75
2022-07-25T02:28:40.711Z,100102.41
2022-07-25T02:33:42.440Z,100104.91
2022-07-25T02:38:44.027Z,100110.94
2022-07-25T02:43:45.586Z,100098.50
2022-07-25T02:48:47.316Z,100099.97
2022-07-25T02:53:58.282Z,100091.91
2022-07-25T02:59:00.395Z,100096.47
2022-07-25T03:04:02.069Z,100088.69
2022-07-25T03:09:04.590Z,100085.72
2022-07-25T03:14:08.491Z,100086.03
2022-07-25T03:19:10.409Z,100088.59
2022-07-25T03:24:12.055Z,100076.91
2022-07-25T03:29:13.876Z,100075.81
2022-07-25T03:34:15.540Z,100073.75
2022-07-25T03:39:17.260Z,100066.16
2022-07-25T03:44:20.151Z,100068.03
2022-07-25T03:49:21.771Z,100058.59
2022-07-25T03:54:23.341Z,100059.81
2022-07-25T03:59:26.234Z,100064.25
2022-07-25T04:04:27.830Z,100057.91
2022-07-25T04:09:31.111Z,100050.56
2022-07-25T04:14:35.319Z,100046.47
2022-07-25T04:19:37.065Z,100037.09
2022-07-25T04:24:38.737Z,100037.25
2022-07-25T04:29:40.338Z,100031.97
2022-07-25T04:34:43.751Z,100020.28
2022-07-25T04:39:45.374Z,100017.34
2022-07-25T04:44:47.017Z,100012.38
2022-07-25T04:49:48.644Z,99997.28
2022-07-25T04:54:50.219Z,99992.94
2022-07-25T04:59:51.941Z,99989.50
2022-07-25T05:04:53.536Z,99973.88
2022-07-25T05:09:55.262Z,99978.38
2022-07-25T05:14:57.047Z,99980.00
2022-07-25T05:19:58.926Z,99977.94
2022-07-25T05:25:02.418Z,99969.22
2022-07-25T05:30:05.825Z,99967.63
2022-07-25T05:35:09.089Z,99968.09
2022-07-25T05:40:10.823Z,99960.69
2022-07-25T05:45:12.718Z,99962.84
2022-07-25T05:50:14.360Z,99956.13
2022-07-25T05:55:16.006Z,99957.59
2022-07-25T06:00:17.857Z,99955.84
2022-07-25T06:05:19.471Z,99944.38
2022-07-25T06:10:21.626Z,99942.19
2022-07-25T06:15:26.882Z,99935.78
2022-07-25T06:20:28.786Z,99930.91
2022-07-25T06:25:30.977Z,99926.75
2022-07-25T06:30:33.436Z,99929.53
2022-07-25T06:35:35.188Z,99926.00
2022-07-25T06:40:36.784Z,99922.00
2022-07-25T06:45:38.465Z,99912.72
2022-07-25T06:50:41.635Z,99911.44
2022-07-25T06:55:43.310Z,99899.44
2022-07-25T07:00:44.919Z,99891.44
2022-07-25T07:05:46.695Z,99891.84
2022-07-25T07:10:48.543Z,99874.56
2022-07-25T07:15:50.898Z,99879.88
2022-07-25T07:20:52.967Z,99883.50
2022-07-25T07:25:54.615Z,99880.13
2022-07-25T07:31:15.893Z,99877.25
2022-07-25T07:36:17.984Z,99870.38
2022-07-25T07:41:19.642Z,99864.63
2022-07-25T07:46:21.276Z,99861.88
2022-07-25T07:51:22.881Z,99860.78
2022-07-25T07:56:24.502Z,99859.13
2022-07-25T08:01:26.985Z,99861.34
2022-07-25T08:06:29.043Z,99848.66
2022-07-25T08:11:30.718Z,99849.75
2022-07-25T08:16:32.941Z,99856.06
2022-07-25T08:21:34.562Z,99833.47
2022-07-25T08:26:37.298Z,99834.84
2022-07-25T08:31:38.995Z,99844.78
2022-07-25T08:36:40.737Z,99838.13
2022-07-25T08:41:42.534Z,99829.16
2022-07-25T08:46:45.515Z,99836.59
2022-07-25T08:51:47.646Z,99824.81
2022-07-25T08:56:53.260Z,99834.19
2022-07-25T09:01:54.989Z,99817.16
2022-07-25T09:06:56.633Z,99800.28
2022-07-25T09:11:58.668Z,99797.66
2022-07-25T09:17:06.405Z,99789.19
2022-07-25T09:22:24.289Z,99784.53
2022-07-25T09:27:25.946Z,99793.84
2022-07-25T09:32:27.579Z,99779.84
2022-07-25T09:37:29.215Z,99768.19
2022-07-25T09:42:32.553Z,99771.00
2022-07-25T09:47:36.977Z,99778.06
2022-07-25T09:52:38.902Z,99770.53
2022-07-25T09:57:41.151Z,99770.38
2022-07-25T10:02:49.801Z,99750.88
2022-07-25T10:07:53.430Z,99740.94
2022-07-25T10:13:08.027Z,99742.47
2022-07-25T10:18:13.387Z,99739.22
2022-07-25T10:23:26.332Z,99725.38
2022-07-25T10:28:39.807Z,99723.53
2022-07-25T10:33:42.272Z,99724.75
2022-07-25T10:38:45.962Z,99722.34
2022-07-25T10:43:50.723Z,99705.91
2022-07-25T10:49:03.390Z,99709.25
2022-07-25T10:54:18.201Z,99695.03
2022-07-25T10:59:46.798Z,99690.09
2022-07-25T11:04:59.384Z,99683.19
2022-07-25T11:10:03.011Z,99671.63
2022-07-25T11:15:06.879Z,99668.56
2022-07-25T11:20:10.625Z,99664.31
2022-07-25T11:25:16.285Z,99665.81
2022-07-25T11:30:19.944Z,99657.47
2022-07-25T11:35:39.641Z,99645.66
2022-07-25T11:40:44.705Z,99652.31
2022-07-25T11:45:56.950Z,99635.97
2022-07-25T11:50:58.798Z,99635.34
2022-07-25T11:56:39.835Z,99621.38
2022-07-25T12:01:37.555Z,99606.00
2022-07-25T12:06:39.937Z,99605.84
2022-07-25T12:11:41.830Z,99605.28
2022-07-25T12:16:43.552Z,99601.97
2022-07-25T12:21:45.628Z,99599.84
2022-07-25T12:26:47.270Z,99584.88
2022-07-25T12:31:48.943Z,99590.31
2022-07-25T12:36:50.675Z,99583.66
2022-07-25T12:41:52.238Z,99571.13
2022-07-25T12:46:53.841Z,99559.22
2022-07-25T12:51:58.219Z,99557.22
2022-07-25T12:57:00.228Z,99552.16
2022-07-25T13:02:01.980Z,99538.56
2022-07-25T13:07:03.923Z,99536.38
2022-07-25T13:12:06.045Z,99529.03
2022-07-25T13:17:07.799Z,99518.00
2022-07-25T13:22:09.611Z,99507.88
2022-07-25T13:27:11.508Z,99500.22
2022-07-25T13:32:13.650Z,99496.81
2022-07-25T13:37:15.562Z,99487.63
2022-07-25T13:42:17.310Z,99480.06
2022-07-25T13:47:19.008Z,99477.41
2022-07-25T13:52:20.718Z,99463.78
2022-07-25T13:57:22.394Z,99454.59
2022-07-25T14:02:24.115Z,99444.91
2022-07-25T14:07:25.806Z,99440.44
2022-07-25T14:12:27.661Z,99438.06
2022-07-25T14:17:30.455Z,99428.53
2022-07-25T14:22:32.346Z,99436.22
2022-07-25T14:27:34.443Z,99426.19
2022-07-25T14:32:36.356Z,99417.28
2022-07-25T14:37:38.125Z,99400.72
2022-07-25T14:42:41.774Z,99409.69
2022-07-25T14:47:43.394Z,99407.88
2022-07-25T14:52:45.025Z,99389.56
2022-07-25T14:57:46.671Z,99383.06
2022-07-25T15:02:48.259Z,99360.97
2022-07-25T15:07:49.838Z,99360.53
2022-07-25T15:13:07.595Z,99357.66
2022-07-25T15:18:14.132Z,99352.63
2022-07-25T15:23:15.905Z,99343.63
2022-07-25T15:28:17.923Z,99339.72
2022-07-25T15:33:19.798Z,99325.28
2022-07-25T15:38:21.455Z,99328.56
2022-07-25T15:43:24.019Z,99326.06
2022-07-25T15:48:27.673Z,99324.84
2022-07-25T15:53:30.274Z,99309.72
2022-07-25T15:58:31.886Z,99302.19
2022-07-25T16:03:33.535Z,99301.06
2022-07-25T16:08:36.274Z,99285.75
2022-07-25T16:13:37.858Z,99281.16
2022-07-25T16:18:39.523Z,99279.66
2022-07-25T16:23:45.510Z,99266.00
2022-07-25T16:28:47.591Z,99262.22
2022-07-25T16:33:49.347Z,99255.19
2022-07-25T16:38:53.325Z,99251.41
2022-07-25T16:43:54.928Z,99241.25
2022-07-25T16:48:56.616Z,99226.44
2022-07-25T16:53:58.312Z,99236.06
2022-07-25T16:59:00.993Z,99210.03
2022-07-25T17:04:02.981Z,99208.53
2022-07-25T17:09:05.428Z,99200.44
2022-07-25T17:14:07.326Z,99197.22
2022-07-25T17:19:09.285Z,99200.28
2022-07-25T17:24:11.237Z,99196.56
2022-07-25T17:29:12.915Z,99201.78
2022-07-25T17:34:14.539Z,99203.03
2022-07-25T17:39:16.417Z,99200.97
2022-07-25T17:44:18.529Z,99200.44
2022-07-25T17:49:21.654Z,99204.44
2022-07-25T17:54:23.415Z,99208.56
2022-07-25T17:59:25.279Z,99200.06
2022-07-25T18:04:27.092Z,99193.59
2022-07-25T18:09:29.217Z,99232.81
2022-07-25T18:14:31.125Z,99328.59
2022-07-25T18:19:33.024Z,99336.25
2022-07-25T18:24:34.766Z,99327.72
2022-07-25T18:29:38.458Z,99357.25
2022-07-25T18:34:40.152Z,99349.63
2022-07-25T18:39:42.462Z,99339.13
2022-07-25T18:44:44.080Z,99337.63
2022-07-25T18:49:45.725Z,99338.09
2022-07-25T18:54:47.481Z,99352.50
2022-07-25T18:59:49.092Z,99353.88
2022-07-25T19:04:50.747Z,99368.19
2022-07-25T19:09:52.338Z,99379.22
2022-07-25T19:14:54.737Z,99386.69
2022-07-25T19:19:56.409Z,99380.66
2022-07-25T19:24:57.986Z,99379.34
2022-07-25T19:29:59.774Z,99379.41
2022-07-25T19:35:02.379Z,99364.56
2022-07-25T19:40:06.417Z,99364.31
2022-07-25T19:45:09.748Z,99372.25
2022-07-25T19:50:11.424Z,99379.38
2022-07-25T19:55:13.173Z,99401.66
2022-07-25T20:00:15.212Z,99415.16
2022-07-25T20:05:17.210Z,99410.84
2022-07-25T20:10:18.932Z,99400.41
2022-07-25T20:15:20.747Z,99427.09
2022-07-25T20:20:22.501Z,99412.81
2022-07-25T20:25:24.289Z,99359.25
2022-07-25T20:30:26.169Z,99363.72
2022-07-25T20:35:33.935Z,99380.47
2022-07-25T20:40:35.790Z,99397.72
2022-07-25T20:45:38.744Z,99390.88
2022-07-25T20:50:40.588Z,99381.25
2022-07-25T20:55:42.284Z,99388.19
2022-07-25T21:00:44.136Z,99392.00
2022-07-25T21:05:45.788Z,99386.81
2022-07-25T21:10:47.379Z,99382.69
2022-07-25T21:15:48.949Z,99375.81
2022-07-25T21:20:51.041Z,99375.00
2022-07-25T21:25:52.909Z,99395.84
2022-07-25T21:30:54.546Z,99405.47
2022-07-25T21:35:56.142Z,99398.63
2022-07-25T21:40:57.982Z,99401.38
2022-07-25T21:45:59.674Z,99400.25
2022-07-25T21:51:01.327Z,99391.50
2022-07-25T21:56:09.352Z,99404.88
2022-07-25T22:01:11.187Z,99418.03
2022-07-25T22:06:12.915Z,99416.41
2022-07-25T22:11:20.720Z,99413.34
2022-07-25T22:16:36.176Z,99414.97
2022-07-25T22:21:39.429Z,99407.28
2022-07-25T22:26:41.106Z,99417.69
2022-07-25T22:31:44.525Z,99463.75
2022-07-25T22:36:46.475Z,99464.38
2022-07-25T22:41:48.149Z,99470.94
2022-07-25T22:46:49.820Z,99470.91
2022-07-25T22:51:51.409Z,99473.09
2022-07-25T22:56:53.041Z,99498.44
2022-07-25T23:01:54.978Z,99507.19
2022-07-25T23:06:56.610Z,99501.84
2022-07-25T23:11:58.537Z,99521.59
2022-07-25T23:17:18.447Z,99526.75
2022-07-25T23:22:21.453Z,99547.69
2022-07-25T23:27:23.294Z,99567.06
2022-07-25T23:32:24.907Z,99581.72
2022-07-25T23:37:26.657Z,99613.16
2022-07-25T23:42:28.223Z,99631.75
2022-07-25T23:47:39.286Z,99643.25
2022-07-25T23:52:42.238Z,99642.00
2022-07-25T23:57:43.866Z,99645.38
